Time;durP1;ratioP1;P1;durP2;ratioP2;P2;SDS_P1;SDS_P2;PMS_P1;PMS_P2;Temp;Humidity;BMP_temperature;BMP_pressure;BME280_temperature;BME280_humidity;BME280_pressure;Samples;Min_cycle;Max_cycle;Signal;HPM_P1;HPM_P2
2022/04/27 00:00:59;;;;;;;22.08;11.10;;;11.80;98.70;;;;;;7567666;23;20534;-84
2022/04/27 00:04:02;;;;;;;24.00;13.07;;;11.90;98.70;;;;;;7574572;23;20081;-84
2022/04/27 00:07:06;;;;;;;22.25;12.07;;;11.90;98.60;;;;;;7567827;23;20411;-85
2022/04/27 00:10:08;;;;;;;21.23;11.95;;;11.80;98.40;;;;;;7568961;23;20030;-84
2022/04/27 00:13:15;;;;;;;19.23;11.52;;;11.70;98.60;;;;;;7568041;23;20022;-85
2022/04/27 00:16:17;;;;;;;23.42;13.57;;;11.70;98.80;;;;;;7567654;23;20040;-85
2022/04/27 00:19:20;;;;;;;20.17;11.85;;;11.80;99.00;;;;;;7576816;23;20034;-85
2022/04/27 00:22:22;;;;;;;19.33;11.50;;;11.70;98.90;;;;;;7568773;23;20101;-85
2022/04/27 00:25:24;;;;;;;24.23;11.80;;;11.70;99.00;;;;;;7567332;23;20054;-84
2022/04/27 00:28:26;;;;;;;25.75;13.30;;;11.70;98.90;;;;;;7573275;23;20015;-84
2022/04/27 00:31:29;;;;;;;24.33;13.40;;;11.70;98.90;;;;;;7567566;23;20090;-84
2022/04/27 00:34:32;;;;;;;22.85;11.50;;;11.60;98.80;;;;;;7568343;23;20019;-84
2022/04/27 00:37:34;;;;;;;25.33;12.48;;;11.60;98.80;;;;;;7567334;23;20027;-84
2022/04/27 00:40:36;;;;;;;23.23;12.50;;;11.60;99.00;;;;;;7571722;23;20023;-85
2022/04/27 00:43:40;;;;;;;24.35;12.30;;;11.60;98.90;;;;;;7575620;23;20088;-84
2022/04/27 00:46:42;;;;;;;26.02;13.18;;;11.50;98.80;;;;;;7581319;23;20058;-86
2022/04/27 00:49:47;;;;;;;24.75;11.90;;;11.40;99.00;;;;;;7566969;23;20023;-85
2022/04/27 00:52:50;;;;;;;23.58;11.98;;;11.40;99.10;;;;;;7567478;23;20077;-85
2022/04/27 00:55:52;;;;;;;24.15;12.52;;;11.40;99.20;;;;;;7569122;23;20042;-85
2022/04/27 00:58:54;;;;;;;26.88;13.80;;;11.40;99.30;;;;;;7569785;23;20117;-85
2022/04/27 01:01:56;;;;;;;25.90;13.23;;;11.50;99.30;;;;;;7571036;23;20033;-83
2022/04/27 01:04:59;;;;;;;22.17;12.13;;;11.60;99.30;;;;;;7569749;23;20061;-85
2022/04/27 01:08:01;;;;;;;41.17;14.63;;;11.60;99.20;;;;;;7569632;23;20158;-85
2022/04/27 01:11:03;;;;;;;24.55;12.45;;;11.60;99.20;;;;;;7570223;23;20045;-84
2022/04/27 01:14:05;;;;;;;23.63;12.52;;;11.50;99.20;;;;;;7570086;23;20616;-85
2022/04/27 01:17:07;;;;;;;25.33;10.95;;;11.60;99.10;;;;;;7569599;23;20022;-85
2022/04/27 01:20:11;;;;;;;26.25;12.90;;;11.70;99.10;;;;;;7579645;23;20088;-84
2022/04/27 01:23:14;;;;;;;19.50;10.80;;;11.70;99.10;;;;;;7606793;23;20033;-85
2022/04/27 01:26:16;;;;;;;23.88;12.48;;;11.70;99.10;;;;;;7607017;23;20028;-84
2022/04/27 01:29:19;;;;;;;23.35;11.98;;;11.70;99.00;;;;;;7605355;23;20022;-84
2022/04/27 01:32:21;;;;;;;25.15;12.68;;;11.70;99.00;;;;;;7611323;23;20028;-84
2022/04/27 01:35:23;;;;;;;22.10;11.45;;;11.70;99.00;;;;;;7605441;23;20525;-84
2022/04/27 01:38:27;;;;;;;21.10;10.90;;;11.70;98.90;;;;;;7606984;23;20106;-84
2022/04/27 01:41:29;;;;;;;21.40;12.00;;;11.70;99.00;;;;;;7605385;23;20033;-84
2022/04/27 01:44:32;;;;;;;23.45;11.40;;;11.60;99.10;;;;;;7605676;23;20041;-84
2022/04/27 01:47:34;;;;;;;25.92;11.73;;;11.50;98.70;;;;;;7605715;23;20018;-84
2022/04/27 01:50:36;;;;;;;22.35;11.57;;;11.50;98.90;;;;;;7606090;23;20022;-84
2022/04/27 01:56:58;;;;;;;25.52;12.80;;;11.50;99.10;;;;;;7609418;23;20026;-84
2022/04/27 02:00:00;;;;;;;24.85;13.27;;;11.50;99.20;;;;;;7605005;23;20330;-84
2022/04/27 02:03:02;;;;;;;27.38;13.18;;;11.60;99.20;;;;;;7616195;23;20022;-86
2022/04/27 02:06:04;;;;;;;26.13;12.93;;;11.60;99.10;;;;;;7605967;23;20080;-84
2022/04/27 02:09:07;;;;;;;29.20;13.18;;;11.70;99.10;;;;;;7604964;23;20057;-84
2022/04/27 02:12:10;;;;;;;23.58;12.32;;;11.70;99.00;;;;;;7605229;23;20053;-84
2022/04/27 02:15:12;;;;;;;27.05;12.98;;;11.70;99.00;;;;;;7605469;23;20018;-84
2022/04/27 02:18:13;;;;;;;30.08;14.18;;;11.80;99.00;;;;;;7605818;23;20026;-84
2022/04/27 02:21:16;;;;;;;19.77;11.70;;;11.80;98.90;;;;;;7605015;23;20022;-84
2022/04/27 02:24:20;;;;;;;21.05;11.50;;;11.70;98.90;;;;;;7610735;23;20092;-83
2022/04/27 02:27:21;;;;;;;24.77;12.40;;;11.70;98.90;;;;;;7605442;23;20097;-85
2022/04/27 02:30:23;;;;;;;22.17;12.30;;;11.80;98.90;;;;;;7605886;23;20112;-84
2022/04/27 02:33:25;;;;;;;21.63;12.00;;;11.80;98.90;;;;;;7605064;23;20538;-84
2022/04/27 02:36:27;;;;;;;18.45;11.40;;;11.80;98.90;;;;;;7605148;23;20101;-84
2022/04/27 02:39:30;;;;;;;19.05;11.43;;;11.80;98.80;;;;;;7604602;23;20590;-84
2022/04/27 02:42:31;;;;;;;18.88;10.80;;;11.90;98.80;;;;;;7617851;23;20018;-83
2022/04/27 02:45:33;;;;;;;23.08;11.05;;;11.80;98.70;;;;;;7604704;23;20413;-83
2022/04/27 02:48:35;;;;;;;18.45;10.57;;;11.90;98.70;;;;;;7605191;23;20022;-84
2022/04/27 02:51:51;;;;;;;27.48;12.68;;;11.80;98.70;;;;;;7614521;23;20101;-84
2022/04/27 02:54:55;;;;;;;17.58;11.07;;;11.80;98.70;;;;;;7604669;23;20346;-84
2022/04/27 02:57:57;;;;;;;19.40;11.73;;;11.80;98.60;;;;;;7617298;23;20044;-84
2022/04/27 03:01:02;;;;;;;20.77;11.55;;;11.80;98.70;;;;;;7607283;23;20038;-84
2022/04/27 03:04:03;;;;;;;19.70;11.13;;;11.80;98.70;;;;;;7604873;23;20026;-85
2022/04/27 03:07:05;;;;;;;20.90;11.25;;;11.70;98.60;;;;;;7605431;23;20073;-85
2022/04/27 03:10:09;;;;;;;24.13;12.90;;;11.90;98.70;;;;;;7605185;23;20022;-85
2022/04/27 03:13:11;;;;;;;21.13;11.60;;;11.80;98.70;;;;;;7607148;23;20018;-85
2022/04/27 03:16:13;;;;;;;21.50;12.32;;;11.80;98.70;;;;;;7604666;23;20033;-85
2022/04/27 03:19:15;;;;;;;21.20;12.20;;;11.80;98.70;;;;;;7603910;23;20042;-85
2022/04/27 03:22:17;;;;;;;20.63;11.07;;;11.80;98.70;;;;;;7604679;23;20152;-85
2022/04/27 03:25:20;;;;;;;21.02;11.38;;;11.80;98.60;;;;;;7606697;23;20132;-85
2022/04/27 03:28:22;;;;;;;22.98;10.20;;;11.80;98.70;;;;;;7604310;23;20097;-85
2022/04/27 03:31:24;;;;;;;21.98;11.82;;;11.80;98.70;;;;;;7604482;23;20096;-85
2022/04/27 03:34:25;;;;;;;21.63;10.93;;;11.80;98.60;;;;;;7616898;23;20057;-85
2022/04/27 03:37:27;;;;;;;22.38;12.50;;;11.70;98.50;;;;;;7604038;23;20475;-84
2022/04/27 03:40:30;;;;;;;24.05;11.43;;;11.70;98.50;;;;;;7604024;23;20029;-83
2022/04/27 03:43:32;;;;;;;24.35;11.88;;;11.60;98.60;;;;;;7609946;23;20074;-84
2022/04/27 03:46:34;;;;;;;22.73;11.65;;;11.60;98.60;;;;;;7610895;23;20557;-84
2022/04/27 03:49:36;;;;;;;20.38;11.35;;;11.50;98.50;;;;;;7610686;23;20101;-83
2022/04/27 03:52:37;;;;;;;21.70;10.85;;;11.50;98.60;;;;;;7608068;23;20022;-84
2022/04/27 03:55:41;;;;;;;25.10;13.43;;;11.50;98.90;;;;;;7606669;23;20542;-83
2022/04/27 03:58:42;;;;;;;27.33;12.80;;;11.50;98.90;;;;;;7606496;23;20077;-83
2022/04/27 04:01:44;;;;;;;28.83;13.32;;;11.50;98.90;;;;;;7607716;23;20026;-83
2022/04/27 04:04:46;;;;;;;31.15;14.07;;;11.50;98.80;;;;;;7607399;23;20719;-83
2022/04/27 04:07:48;;;;;;;29.25;16.25;;;11.50;98.80;;;;;;7607131;23;20025;-84
2022/04/27 04:10:51;;;;;;;29.23;13.75;;;11.50;98.90;;;;;;7606375;23;20022;-83
2022/04/27 04:13:52;;;;;;;29.88;13.75;;;11.50;98.80;;;;;;7609782;23;20354;-84
2022/04/27 04:16:54;;;;;;;25.63;13.73;;;11.50;98.80;;;;;;7608111;23;20560;-83
2022/04/27 04:19:56;;;;;;;30.35;13.35;;;11.50;98.90;;;;;;7611733;23;20032;-82
2022/04/27 04:22:58;;;;;;;30.30;13.85;;;11.60;98.90;;;;;;7611847;23;20018;-83
2022/04/27 04:29:20;;;;;;;27.77;13.73;;;11.60;98.90;;;;;;7610042;23;20533;-83
2022/04/27 04:32:22;;;;;;;28.27;12.93;;;11.60;98.90;;;;;;7607862;23;20498;-82
2022/04/27 04:35:23;;;;;;;30.35;14.75;;;11.60;99.00;;;;;;7611063;23;20125;-83
2022/04/27 04:38:25;;;;;;;32.83;14.65;;;11.60;98.90;;;;;;7612394;23;20489;-83
2022/04/27 04:41:28;;;;;;;35.15;15.25;;;11.70;98.90;;;;;;7610846;23;20026;-83
2022/04/27 04:44:30;;;;;;;33.33;15.70;;;11.70;98.80;;;;;;7610949;23;20030;-83
2022/04/27 04:47:32;;;;;;;33.58;15.25;;;11.70;98.90;;;;;;7610536;23;20092;-83
2022/04/27 04:50:34;;;;;;;30.58;14.65;;;11.70;98.90;;;;;;7609681;23;20101;-83
2022/04/27 04:53:36;;;;;;;28.60;14.18;;;11.70;98.80;;;;;;7583519;23;20033;-83
2022/04/27 04:56:39;;;;;;;28.90;14.50;;;11.80;98.80;;;;;;7611129;23;20077;-83
2022/04/27 04:59:41;;;;;;;31.63;13.55;;;11.80;98.90;;;;;;7618885;23;20026;-83
2022/04/27 05:02:44;;;;;;;32.03;15.90;;;11.80;98.80;;;;;;7612897;23;20026;-83
2022/04/27 05:05:46;;;;;;;31.10;15.27;;;11.80;99.20;;;;;;7614555;23;20025;-83
2022/04/27 05:08:49;;;;;;;34.72;14.60;;;11.90;98.90;;;;;;7610290;23;20022;-84
2022/04/27 05:11:52;;;;;;;31.23;14.93;;;11.90;98.80;;;;;;7620587;23;20046;-83
2022/04/27 05:14:54;;;;;;;30.23;14.15;;;11.90;98.70;;;;;;7621351;23;20038;-83
2022/04/27 05:17:56;;;;;;;33.70;15.52;;;12.00;98.80;;;;;;7623414;23;20426;-83
2022/04/27 05:20:58;;;;;;;27.02;14.43;;;12.00;98.90;;;;;;7624932;23;20029;-83
2022/04/27 05:24:00;;;;;;;25.85;12.50;;;12.10;98.90;;;;;;7624359;23;20361;-83
2022/04/27 05:27:04;;;;;;;28.27;13.00;;;12.10;98.70;;;;;;7624562;23;20028;-83
2022/04/27 05:33:27;;;;;;;34.45;17.35;;;12.30;98.80;;;;;;7623958;23;20022;-83
2022/04/27 05:36:29;;;;;;;31.83;16.15;;;12.30;98.80;;;;;;7623136;23;20081;-83
2022/04/27 05:39:31;;;;;;;36.35;17.95;;;12.40;98.70;;;;;;7623587;23;20038;-83
2022/04/27 05:42:35;;;;;;;38.13;18.38;;;12.40;98.50;;;;;;7639003;23;20029;-83
2022/04/27 05:45:37;;;;;;;34.10;17.73;;;12.50;97.80;;;;;;7627202;23;20018;-83
2022/04/27 05:48:38;;;;;;;29.85;15.80;;;12.50;98.10;;;;;;7623979;23;20022;-83
2022/04/27 05:51:40;;;;;;;28.25;15.75;;;12.50;97.80;;;;;;7624851;23;20025;-83
2022/04/27 05:54:42;;;;;;;35.00;16.35;;;12.50;97.90;;;;;;7619011;23;20026;-83
2022/04/27 05:57:45;;;;;;;27.77;16.25;;;12.70;98.00;;;;;;7617158;23;20049;-83
2022/04/27 06:00:49;;;;;;;21.75;13.32;;;12.80;97.50;;;;;;7625660;23;20022;-83
2022/04/27 06:03:53;;;;;;;25.58;13.95;;;12.90;97.20;;;;;;7623076;23;20018;-83
2022/04/27 06:06:55;;;;;;;21.98;13.43;;;13.00;96.60;;;;;;7622657;23;20089;-83
2022/04/27 06:09:57;;;;;;;25.90;12.93;;;13.00;96.00;;;;;;7623712;23;20515;-83
2022/04/27 06:13:00;;;;;;;22.50;13.68;;;13.00;96.20;;;;;;7623791;23;20107;-83
2022/04/27 06:16:02;;;;;;;23.73;14.68;;;13.00;96.80;;;;;;7625015;23;20037;-83
2022/04/27 06:19:05;;;;;;;23.80;14.15;;;13.30;96.30;;;;;;7636092;23;20026;-82
2022/04/27 07:27:38;;;;;;;17.42;11.57;;;16.40;91.10;;;;;;7392548;23;20028;-86
2022/04/27 07:30:42;;;;;;;19.35;12.90;;;18.60;86.60;;;;;;7485283;23;20028;-87
2022/04/27 07:34:01;;;;;;;19.63;11.77;;;21.30;80.60;;;;;;7568824;23;20122;-87
2022/04/27 07:37:05;;;;;;;;;;;24.30;67.20;;;;;;7588160;23;20038;-86
2022/04/27 07:40:11;;;;;;;15.52;10.07;;;25.90;62.20;;;;;;7592499;23;19927;-83
2022/04/27 07:43:15;;;;;;;14.88;11.35;;;24.70;60.40;;;;;;7591930;23;20358;-86
2022/04/27 07:46:17;;;;;;;14.30;9.68;;;22.80;65.00;;;;;;7580690;23;20014;-86
2022/04/27 07:49:20;;;;;;;14.95;10.00;;;21.50;70.70;;;;;;7569820;23;20110;-85
2022/04/27 07:52:22;;;;;;;15.93;10.27;;;20.70;71.00;;;;;;7574007;23;20414;-85
2022/04/27 07:55:24;;;;;;;13.00;9.18;;;20.90;73.70;;;;;;7577827;23;20085;-85
2022/04/27 07:58:27;;;;;;;12.18;9.13;;;22.60;70.60;;;;;;7581306;23;20026;-84
2022/04/27 08:01:30;;;;;;;10.43;7.93;;;23.40;65.50;;;;;;7569925;23;20030;-81
2022/04/27 08:04:31;;;;;;;14.20;9.02;;;22.70;67.10;;;;;;7567772;23;20375;-84
2022/04/27 08:07:37;;;;;;;12.98;9.75;;;22.20;67.60;;;;;;7578929;23;20022;-83
2022/04/27 08:10:39;;;;;;;10.25;7.43;;;22.20;69.20;;;;;;7568548;23;20101;-84
2022/04/27 08:13:42;;;;;;;10.30;7.40;;;24.60;65.30;;;;;;7568467;23;20548;-85
2022/04/27 08:16:44;;;;;;;11.20;7.22;;;27.50;59.30;;;;;;7567786;23;20050;-85
2022/04/27 08:19:46;;;;;;;12.10;7.15;;;29.80;50.30;;;;;;7575640;23;20537;-85
2022/04/27 08:22:48;;;;;;;8.73;6.85;;;30.20;47.40;;;;;;7580287;23;20421;-85
2022/04/27 08:25:51;;;;;;;8.13;5.78;;;30.20;47.70;;;;;;7582147;23;20097;-86
2022/04/27 08:28:54;;;;;;;11.48;6.07;;;31.40;45.80;;;;;;7594926;23;20574;-83
2022/04/27 08:31:55;;;;;;;7.30;6.18;;;32.70;43.10;;;;;;7605547;23;20466;-85
2022/04/27 08:34:57;;;;;;;8.35;5.78;;;33.20;38.10;;;;;;7616625;23;20049;-84
2022/04/27 08:37:59;;;;;;;5.50;4.47;;;32.10;39.20;;;;;;7619445;23;20513;-83
2022/04/27 08:41:02;;;;;;;10.00;5.03;;;31.80;39.70;;;;;;7608682;23;20025;-83
2022/04/27 08:44:07;;;;;;;6.80;4.93;;;30.90;39.10;;;;;;7606430;23;20022;-83
2022/04/27 08:47:10;;;;;;;5.88;4.22;;;30.20;41.00;;;;;;7618255;23;20369;-86
2022/04/27 08:50:12;;;;;;;6.18;4.15;;;28.40;42.00;;;;;;7609011;23;20081;-83
2022/04/27 08:53:14;;;;;;;4.82;3.70;;;26.50;44.40;;;;;;7609927;23;20409;-83
2022/04/27 08:56:16;;;;;;;6.97;4.40;;;24.80;46.90;;;;;;7614933;23;20486;-83
2022/04/27 08:59:20;;;;;;;6.15;3.42;;;24.00;48.40;;;;;;7625344;23;20098;-84
2022/04/27 09:02:26;;;;;;;8.77;4.13;;;24.60;49.40;;;;;;7630488;23;20085;-83
2022/04/27 09:05:29;;;;;;;7.28;4.00;;;24.50;47.40;;;;;;7609333;23;20038;-83
2022/04/27 09:08:38;;;;;;;9.88;3.40;;;23.80;48.30;;;;;;7624930;23;20026;-86
2022/04/27 09:11:40;;;;;;;8.60;3.42;;;24.20;51.90;;;;;;7609330;23;20061;-83
2022/04/27 09:14:44;;;;;;;5.07;4.05;;;24.30;50.30;;;;;;7617267;23;20020;-84
2022/04/27 09:21:06;;;;;;;4.18;3.17;;;25.80;50.60;;;;;;7610742;23;20081;-84
2022/04/27 09:24:07;;;;;;;5.78;3.00;;;26.40;48.50;;;;;;7615051;23;20018;-84
2022/04/27 09:27:18;;;;;;;4.25;2.85;;;27.20;44.10;;;;;;7621634;23;20038;-84
2022/04/27 09:30:27;;;;;;;3.85;2.88;;;27.90;41.60;;;;;;7625835;23;20375;-85
2022/04/27 09:33:33;;;;;;;4.93;2.95;;;27.30;42.80;;;;;;7648159;23;20032;-84
2022/04/27 09:36:35;;;;;;;3.20;2.22;;;26.20;42.60;;;;;;7629882;23;20041;-84
2022/04/27 09:39:37;;;;;;;3.17;2.33;;;25.10;45.60;;;;;;7622011;23;20022;-84
2022/04/27 09:42:41;;;;;;;8.65;1.70;;;24.70;44.30;;;;;;7625023;23;20390;-84
2022/04/27 09:45:45;;;;;;;3.22;2.35;;;24.30;43.90;;;;;;7614320;23;20029;-84
2022/04/27 09:48:47;;;;;;;4.13;1.95;;;24.10;45.20;;;;;;7617511;23;20032;-84
2022/04/27 09:51:51;;;;;;;3.83;2.25;;;24.40;45.80;;;;;;7627646;23;20078;-85
2022/04/27 09:54:56;;;;;;;4.25;1.80;;;24.70;46.70;;;;;;7625880;23;20040;-84
2022/04/27 09:57:58;;;;;;;2.45;1.38;;;25.00;43.80;;;;;;7612673;23;20081;-84
2022/04/27 10:01:04;;;;;;;3.85;1.92;;;24.90;47.30;;;;;;7616967;23;20097;-83
2022/04/27 10:04:07;;;;;;;4.13;2.22;;;24.30;44.70;;;;;;7621787;23;20029;-84
2022/04/27 10:07:10;;;;;;;2.88;2.00;;;23.30;47.20;;;;;;7626387;23;20018;-85
2022/04/27 10:10:12;;;;;;;2.20;1.60;;;22.60;49.80;;;;;;7623600;23;20081;-83
2022/04/27 10:13:16;;;;;;;2.83;2.28;;;22.20;51.40;;;;;;7616565;23;20026;-83
2022/04/27 10:16:22;;;;;;;3.88;1.73;;;21.70;52.00;;;;;;7621322;23;20052;-82
2022/04/27 10:19:25;;;;;;;3.33;1.83;;;21.40;55.00;;;;;;7612095;23;20018;-83
2022/04/27 10:22:30;;;;;;;2.53;1.77;;;21.60;53.60;;;;;;7616503;23;20054;-83
2022/04/27 10:25:32;;;;;;;3.22;1.90;;;21.50;52.50;;;;;;7617919;23;20029;-81
2022/04/27 10:28:37;;;;;;;2.10;1.70;;;21.20;53.70;;;;;;7613691;23;20058;-83
2022/04/27 10:32:00;;;;;;;3.35;1.70;;;21.50;55.20;;;;;;7627307;23;20022;-81
2022/04/27 10:35:25;;;;;;;2.42;1.88;;;21.90;54.90;;;;;;7612519;23;20026;-83
2022/04/27 10:38:27;;;;;;;2.35;1.40;;;22.00;51.70;;;;;;7609977;23;20457;-82
2022/04/27 10:41:29;;;;;;;2.22;1.40;;;21.60;53.90;;;;;;7613719;23;20025;-82
2022/04/27 10:45:04;;;;;;;1.70;1.13;;;21.60;52.40;;;;;;7608415;23;20097;-81
2022/04/27 10:48:14;;;;;;;2.35;1.42;;;21.70;53.40;;;;;;7609980;23;20030;-83
2022/04/27 10:51:16;;;;;;;4.40;1.65;;;21.80;51.50;;;;;;7609520;23;20022;-80
2022/04/27 10:54:27;;;;;;;3.90;1.20;;;21.50;50.30;;;;;;7612441;23;20414;-80
2022/04/27 10:57:41;;;;;;;2.10;1.33;;;21.80;50.40;;;;;;7609185;23;20033;-80
2022/04/27 11:01:27;;;;;;;1.98;1.20;;;21.90;50.10;;;;;;7609929;23;20025;-80
2022/04/27 11:04:34;;;;;;;4.72;1.20;;;22.10;48.90;;;;;;7615277;23;20026;-81
2022/04/27 11:07:39;;;;;;;3.60;1.27;;;22.10;50.30;;;;;;7623967;23;20070;-81
2022/04/27 11:10:42;;;;;;;3.15;1.67;;;22.20;50.10;;;;;;7638833;23;20026;-81
2022/04/27 11:13:44;;;;;;;3.22;2.08;;;21.90;50.40;;;;;;7623506;23;20097;-80
2022/04/27 11:16:47;;;;;;;3.95;1.33;;;21.80;51.50;;;;;;7619646;23;20081;-80
2022/04/27 11:19:50;;;;;;;3.70;1.40;;;22.10;49.60;;;;;;7618967;23;20022;-81
2022/04/27 11:22:53;;;;;;;1.70;1.30;;;22.30;50.00;;;;;;7633277;23;20022;-81
2022/04/27 11:25:55;;;;;;;2.53;1.00;;;22.60;49.10;;;;;;7622660;23;20022;-80
2022/04/27 11:28:58;;;;;;;2.15;1.45;;;22.40;47.80;;;;;;7618502;23;20026;-80
2022/04/27 11:32:05;;;;;;;3.00;1.70;;;21.80;49.40;;;;;;7619152;23;20053;-80
2022/04/27 11:35:09;;;;;;;2.15;1.50;;;21.50;51.20;;;;;;7620792;23;20017;-82
2022/04/27 11:38:11;;;;;;;2.22;1.60;;;22.00;49.30;;;;;;7630110;23;20056;-81
2022/04/27 12:13:41;;;;;;;3.83;1.52;;;21.20;51.40;;;;;;7476501;23;20024;-88
2022/04/27 12:17:16;;;;;;;5.25;1.67;;;21.20;51.60;;;;;;7465475;23;20115;-84
2022/04/27 12:24:25;;;;;;;2.53;1.45;;;20.30;52.70;;;;;;7427904;23;20023;-80
2022/04/27 12:27:28;;;;;;;5.88;1.50;;;20.40;52.80;;;;;;7578710;23;20077;-80
2022/04/27 12:30:30;;;;;;;2.38;1.38;;;20.30;51.50;;;;;;7581772;23;20026;-80
2022/04/27 12:33:34;;;;;;;2.25;1.45;;;20.40;50.90;;;;;;7580736;23;20026;-80
2022/04/27 12:40:11;;;;;;;3.10;1.63;;;20.40;51.50;;;;;;7578237;23;20508;-81
2022/04/27 12:43:14;;;;;;;1.70;1.23;;;20.60;50.50;;;;;;7583136;23;20022;-81
2022/04/27 12:49:28;;;;;;;2.50;1.15;;;21.70;46.80;;;;;;6331628;27;20352;-82
2022/04/27 12:52:33;;;;;;;1.08;0.80;;;21.90;47.90;;;;;;6325311;28;20406;-82
2022/04/27 12:55:35;;;;;;;2.25;1.50;;;22.20;47.90;;;;;;6319169;28;20044;-80
2022/04/27 12:58:37;;;;;;;5.50;1.42;;;22.20;46.90;;;;;;6300240;28;20051;-81
2022/04/27 13:32:58;;;;;;;3.22;1.65;;;20.30;50.70;;;;;;6339664;27;20356;-80
2022/04/27 13:36:00;;;;;;;2.58;1.65;;;20.70;50.80;;;;;;6325010;28;20055;-79
2022/04/27 13:39:01;;;;;;;2.42;1.67;;;21.40;49.30;;;;;;6324378;28;20052;-80
2022/04/27 13:42:05;;;;;;;2.20;1.50;;;21.70;47.90;;;;;;6324600;28;20050;-80
2022/04/27 13:45:10;;;;;;;2.15;1.55;;;21.60;48.20;;;;;;6323809;28;20094;-82
2022/04/27 13:48:13;;;;;;;2.90;1.17;;;21.50;48.60;;;;;;6324953;28;20135;-80
2022/04/27 13:51:17;;;;;;;3.40;1.20;;;21.10;48.90;;;;;;6322009;28;20150;-80
2022/04/27 13:54:20;;;;;;;2.13;1.58;;;20.70;49.90;;;;;;6323618;28;20055;-81
2022/04/27 13:57:21;;;;;;;1.38;1.10;;;20.70;50.30;;;;;;6300874;28;20100;-80
2022/04/27 14:00:23;;;;;;;3.42;1.38;;;20.70;49.90;;;;;;6301400;28;20124;-80
2022/04/27 14:03:26;;;;;;;2.30;1.73;;;20.80;50.50;;;;;;6301178;28;20086;-80
2022/04/27 14:06:28;;;;;;;1.95;1.52;;;21.10;50.60;;;;;;6300577;28;20072;-80
2022/04/27 14:09:30;;;;;;;2.30;1.38;;;21.40;49.10;;;;;;6299249;28;20106;-80
2022/04/27 14:19:12;;;;;;;1.63;1.15;;;22.50;47.10;;;;;;6297035;28;20041;-79
2022/04/27 14:22:13;;;;;;;4.60;1.65;;;22.30;47.40;;;;;;6299855;28;20049;-79
2022/04/27 14:25:15;;;;;;;2.58;1.70;;;22.30;48.00;;;;;;6298728;28;20118;-81
2022/04/27 14:28:18;;;;;;;1.50;1.10;;;22.40;46.50;;;;;;6301961;28;20052;-81
2022/04/27 14:31:20;;;;;;;3.75;1.77;;;22.00;47.40;;;;;;6301837;28;20131;-80
2022/04/27 14:34:24;;;;;;;2.00;1.35;;;21.60;47.60;;;;;;6301761;28;20089;-79
2022/04/27 14:37:26;;;;;;;1.88;1.17;;;21.20;48.90;;;;;;6298584;28;20358;-80
2022/04/27 14:40:28;;;;;;;2.95;1.15;;;20.90;50.60;;;;;;6299268;28;20054;-81
2022/04/27 14:43:29;;;;;;;5.15;1.58;;;20.70;49.50;;;;;;6287048;28;20071;-80
2022/04/27 14:46:31;;;;;;;4.82;2.35;;;20.40;50.50;;;;;;6304744;28;20047;-79
2022/04/27 14:49:34;;;;;;;2.53;1.50;;;20.40;51.80;;;;;;6285018;28;20088;-80
2022/04/27 14:52:37;;;;;;;2.53;1.65;;;20.60;51.20;;;;;;6277801;28;20495;-79
2022/04/27 14:55:38;;;;;;;2.88;1.80;;;20.50;48.80;;;;;;6280265;28;20051;-80
2022/04/27 14:58:40;;;;;;;2.17;1.40;;;20.30;50.30;;;;;;6283867;28;20124;-82
2022/04/27 15:01:43;;;;;;;2.22;1.58;;;20.20;50.40;;;;;;6282013;28;20056;-82
2022/04/27 15:04:47;;;;;;;3.45;1.67;;;20.20;51.30;;;;;;6282701;28;20525;-81
2022/04/27 15:07:48;;;;;;;2.28;1.42;;;20.30;51.30;;;;;;6279952;28;20057;-80
2022/04/27 15:10:50;;;;;;;3.38;1.55;;;20.40;51.20;;;;;;6276372;28;20452;-78
2022/04/27 15:13:53;;;;;;;3.40;1.65;;;20.60;49.80;;;;;;6275421;28;20057;-78
2022/04/27 15:16:54;;;;;;;5.40;1.13;;;20.70;50.10;;;;;;6275412;28;20132;-79
2022/04/27 15:23:17;;;;;;;4.65;1.55;;;20.80;49.90;;;;;;6276223;28;20045;-79
2022/04/27 15:26:19;;;;;;;2.80;1.63;;;20.80;49.80;;;;;;6276092;28;20100;-79
2022/04/27 15:29:20;;;;;;;2.67;1.42;;;20.90;50.70;;;;;;6275978;28;20045;-79
2022/04/27 15:32:22;;;;;;;2.55;1.60;;;21.20;50.10;;;;;;6276198;28;20040;-79
2022/04/27 15:35:27;;;;;;;3.17;1.55;;;21.30;50.00;;;;;;6275805;28;20036;-79
2022/04/27 15:38:29;;;;;;;2.20;1.52;;;21.30;48.50;;;;;;6278455;28;20045;-79
2022/04/27 15:41:30;;;;;;;3.88;1.88;;;21.00;48.80;;;;;;6275852;28;20171;-79
2022/04/27 15:44:33;;;;;;;3.03;1.58;;;20.80;49.20;;;;;;6276134;28;20174;-80
2022/04/27 15:47:34;;;;;;;2.10;1.70;;;20.70;49.70;;;;;;6276715;28;20110;-80
2022/04/27 15:50:37;;;;;;;2.22;1.40;;;20.70;50.30;;;;;;6276932;28;20080;-79
2022/04/27 15:53:41;;;;;;;2.40;1.48;;;20.70;49.80;;;;;;6275237;28;20045;-80
2022/04/27 15:56:42;;;;;;;3.40;1.23;;;20.60;49.70;;;;;;6272520;28;20059;-79
2022/04/27 15:59:44;;;;;;;2.58;1.60;;;20.40;49.60;;;;;;6263233;28;20049;-79
2022/04/27 16:02:47;;;;;;;2.88;1.90;;;20.10;50.40;;;;;;6274906;28;20178;-79
2022/04/27 16:05:50;;;;;;;3.58;1.73;;;20.10;50.40;;;;;;6278297;28;20098;-79
2022/04/27 16:08:52;;;;;;;3.03;1.90;;;19.90;50.40;;;;;;6277718;28;20045;-78
2022/04/27 16:11:54;;;;;;;2.55;1.85;;;19.70;51.10;;;;;;6277668;28;20044;-79
2022/04/27 16:14:55;;;;;;;3.53;2.35;;;19.60;51.90;;;;;;6278559;28;20053;-79
2022/04/27 16:17:57;;;;;;;4.90;1.75;;;19.60;50.70;;;;;;6278594;28;20088;-79
2022/04/27 16:24:20;;;;;;;5.18;2.35;;;19.20;50.90;;;;;;6271963;28;20140;-79
2022/04/27 16:27:22;;;;;;;3.05;2.47;;;19.10;51.60;;;;;;6278253;28;20079;-80
2022/04/27 16:30:23;;;;;;;1.88;1.45;;;19.00;52.60;;;;;;6279354;28;20053;-81
2022/04/27 16:33:25;;;;;;;3.50;1.40;;;19.00;52.00;;;;;;6278261;28;20126;-79
2022/04/27 16:36:28;;;;;;;3.70;1.70;;;18.80;52.40;;;;;;6276797;28;20171;-79
2022/04/27 16:39:33;;;;;;;2.42;1.38;;;18.80;53.50;;;;;;6277679;28;20051;-80
2022/04/27 16:42:34;;;;;;;2.80;1.70;;;18.70;53.30;;;;;;6278277;28;20044;-82
2022/04/27 16:45:36;;;;;;;3.00;1.50;;;18.60;54.50;;;;;;6277444;28;20040;-80
2022/04/27 16:48:38;;;;;;;3.75;2.10;;;18.50;55.00;;;;;;6276404;28;20045;-80
2022/04/27 16:51:41;;;;;;;2.33;1.50;;;18.40;55.20;;;;;;6277486;28;20043;-79
2022/04/27 16:54:43;;;;;;;2.55;1.50;;;18.30;54.10;;;;;;6275923;28;20136;-80
2022/04/27 16:57:45;;;;;;;2.85;1.33;;;18.20;54.60;;;;;;6273735;28;20056;-79
2022/04/27 17:00:53;;;;;;;3.13;1.27;;;18.20;54.00;;;;;;6277092;28;20055;-79
2022/04/27 17:03:55;;;;;;;;;;;18.10;55.30;;;;;;6277084;28;20067;-80
2022/04/27 17:06:58;;;;;;;2.80;1.77;;;18.10;55.00;;;;;;6275037;28;20289;-79
2022/04/27 17:10:00;;;;;;;2.55;1.50;;;18.00;54.90;;;;;;6276187;28;20195;-79
2022/04/27 17:13:02;;;;;;;24.33;9.85;;;18.00;55.70;;;;;;6275379;28;20041;-79
2022/04/27 17:16:05;;;;;;;4.32;2.13;;;17.90;56.60;;;;;;6274636;28;20048;-79
2022/04/27 17:19:06;;;;;;;130.10;51.67;;;17.90;57.00;;;;;;6274018;28;20514;-79
2022/04/27 17:22:10;;;;;;;3.33;2.30;;;17.80;58.40;;;;;;6274078;28;20045;-79
2022/04/27 17:25:11;;;;;;;4.68;2.00;;;17.90;57.80;;;;;;6273123;28;20053;-80
2022/04/27 17:28:12;;;;;;;2.95;2.05;;;17.80;57.90;;;;;;6273916;28;20132;-79
2022/04/27 17:31:14;;;;;;;3.35;2.10;;;17.70;58.60;;;;;;6273449;28;20102;-79
2022/04/27 17:34:16;;;;;;;3.28;2.10;;;17.60;58.80;;;;;;6272985;28;20053;-79
2022/04/27 17:37:19;;;;;;;2.72;2.03;;;17.60;58.70;;;;;;6273215;28;20120;-79
2022/04/27 17:40:21;;;;;;;2.85;1.88;;;17.50;59.60;;;;;;6275259;28;20052;-79
2022/04/27 17:43:23;;;;;;;3.17;1.88;;;17.40;59.80;;;;;;6293850;28;20518;-79
2022/04/27 17:46:26;;;;;;;6.20;1.90;;;17.40;60.60;;;;;;6273785;28;20100;-79
2022/04/27 17:49:28;;;;;;;4.18;2.33;;;17.40;60.90;;;;;;6273236;28;20045;-79
2022/04/27 17:52:32;;;;;;;3.38;1.60;;;17.40;61.10;;;;;;6268186;28;20105;-79
2022/04/27 17:55:34;;;;;;;3.22;1.92;;;17.40;61.60;;;;;;6272393;28;20060;-79
2022/04/27 17:58:37;;;;;;;3.05;1.92;;;17.40;62.00;;;;;;6272022;28;20049;-79
2022/04/27 18:01:39;;;;;;;2.95;2.05;;;17.30;62.00;;;;;;6272875;28;20103;-80
2022/04/27 18:04:40;;;;;;;2.80;1.73;;;17.30;62.40;;;;;;6272909;28;20041;-79
2022/04/27 18:07:44;;;;;;;3.05;1.98;;;17.20;62.80;;;;;;6273107;28;20055;-80
2022/04/27 18:10:47;;;;;;;5.25;1.70;;;17.20;63.50;;;;;;6272601;28;20094;-79
2022/04/27 18:13:49;;;;;;;4.88;2.55;;;17.10;64.40;;;;;;6273019;28;20060;-80
2022/04/27 18:16:51;;;;;;;2.85;2.05;;;17.00;64.50;;;;;;6275027;28;20094;-80
2022/04/27 18:19:54;;;;;;;3.38;2.08;;;16.90;65.40;;;;;;6280613;28;20045;-80
2022/04/27 18:22:57;;;;;;;3.95;2.33;;;16.80;66.70;;;;;;6280999;28;20124;-80
2022/04/27 18:25:59;;;;;;;3.67;2.40;;;16.70;67.80;;;;;;6293373;22;20128;-80
2022/04/27 18:29:01;;;;;;;3.72;2.85;;;16.60;68.60;;;;;;6262012;28;20067;-79